createdAt,value
2019-01-21T00:01:12.953Z,85.64
2019-01-21T00:07:17.662Z,85.35
2019-01-21T00:13:23.231Z,84.77
2019-01-21T00:19:27.868Z,84.68
2019-01-21T00:25:34.411Z,85.19
2019-01-21T00:31:38.979Z,86.15
2019-01-21T00:37:43.579Z,86.34
2019-01-21T00:43:49.018Z,86.15
2019-01-21T00:49:53.755Z,86.32
2019-01-21T00:55:58.504Z,85.95
2019-01-21T01:02:03.162Z,85.77
2019-01-21T01:08:07.868Z,85.93
2019-01-21T01:14:12.456Z,85.99
2019-01-21T01:20:23.533Z,85.96
2019-01-21T01:26:28.142Z,86.11
2019-01-21T01:32:32.856Z,86.15
2019-01-21T01:38:37.452Z,86.17
2019-01-21T01:44:42.119Z,86.08
2019-01-21T01:50:47.128Z,85.29
2019-01-21T01:56:51.780Z,85.73
2019-01-21T02:02:57.118Z,85.52
2019-01-21T02:09:01.848Z,85.77
2019-01-21T02:15:11.140Z,86.25
2019-01-21T02:21:15.776Z,85.84
2019-01-21T02:27:23.465Z,85.66
2019-01-21T02:34:14.404Z,85.76
2019-01-21T02:40:41.363Z,85.57
2019-01-21T02:46:59.293Z,85.26
2019-01-21T02:53:27.932Z,85.61
2019-01-21T02:59:50.225Z,84.88
2019-01-21T03:06:02.379Z,84.38
2019-01-21T03:12:29.563Z,84.96
2019-01-21T03:18:41.505Z,84.97
2019-01-21T03:25:22.866Z,84.71
2019-01-21T03:31:42.349Z,84.88
2019-01-21T03:38:09.504Z,85.43
2019-01-21T03:44:27.190Z,85.18
2019-01-21T03:50:44.908Z,85.62
2019-01-21T03:56:54.104Z,85.39
2019-01-21T04:03:18.331Z,85.79
2019-01-21T04:09:51.523Z,85.54
2019-01-21T04:16:24.060Z,85.60
2019-01-21T04:23:00.277Z,84.91
2019-01-21T04:29:34.582Z,84.81
2019-01-21T04:36:10.718Z,84.32
2019-01-21T04:42:24.494Z,84.81
2019-01-21T04:48:36.658Z,84.63
2019-01-21T04:55:12.948Z,85.07
2019-01-21T05:01:46.239Z,85.09
2019-01-21T05:08:32.904Z,86.02
2019-01-21T05:14:57.076Z,85.86
2019-01-21T05:21:23.935Z,84.78
2019-01-21T05:27:35.672Z,85.55
2019-01-21T05:34:11.933Z,83.75
2019-01-21T05:40:41.758Z,84.46
2019-01-21T05:46:59.089Z,83.82
2019-01-21T05:53:30.446Z,85.17
2019-01-21T06:00:22.912Z,84.86
2019-01-21T06:06:41.590Z,85.68
2019-01-21T06:12:56.553Z,85.70
2019-01-21T06:19:28.836Z,85.07
2019-01-21T06:26:15.396Z,84.47
2019-01-21T06:32:48.589Z,84.73
2019-01-21T06:39:03.266Z,84.61
2019-01-21T06:45:42.047Z,84.04
2019-01-21T06:52:23.090Z,84.73
2019-01-21T06:58:40.701Z,85.19
2019-01-21T07:04:52.457Z,85.26
2019-01-21T07:11:04.689Z,86.08
2019-01-21T07:17:38.070Z,86.97
2019-01-21T07:23:58.795Z,87.05
2019-01-21T07:30:19.224Z,86.35
2019-01-21T07:36:53.930Z,86.49
2019-01-21T07:43:26.712Z,85.90
2019-01-21T07:50:17.683Z,86.10
2019-01-21T07:56:29.619Z,85.22
2019-01-21T08:02:48.370Z,84.99
2019-01-21T08:09:09.192Z,84.93
2019-01-21T08:15:35.655Z,84.89
2019-01-21T08:21:56.173Z,84.40
2019-01-21T08:28:08.237Z,84.02
2019-01-21T08:34:51.635Z,84.05
2019-01-21T08:41:06.723Z,83.67
2019-01-21T08:47:28.068Z,82.74
2019-01-21T08:53:45.891Z,83.38
2019-01-21T09:00:01.057Z,83.59
2019-01-21T09:06:20.769Z,82.70
2019-01-21T09:12:50.888Z,82.53
2019-01-21T09:19:02.807Z,83.46
2019-01-21T09:25:50.846Z,82.84
2019-01-21T09:32:19.217Z,82.83
2019-01-21T09:39:05.668Z,82.92
2019-01-21T09:45:14.941Z,82.23
2019-01-21T09:51:20.147Z,82.40
2019-01-21T09:57:25.169Z,82.79
2019-01-21T10:03:30.501Z,82.33
2019-01-21T10:10:01.985Z,81.26
2019-01-21T10:16:23.095Z,82.07
2019-01-21T10:22:48.620Z,82.05
2019-01-21T10:29:00.457Z,82.01
2019-01-21T10:35:27.593Z,81.66
2019-01-21T10:41:48.541Z,81.93
2019-01-21T10:48:04.832Z,82.46
2019-01-21T10:54:50.621Z,81.95
2019-01-21T11:01:36.877Z,79.69
2019-01-21T11:08:21.589Z,80.60
2019-01-21T11:14:50.995Z,80.36
2019-01-21T11:21:15.127Z,79.54
2019-01-21T11:27:47.838Z,79.17
2019-01-21T11:34:02.845Z,77.85
2019-01-21T11:40:17.687Z,78.27
2019-01-21T11:46:50.523Z,77.87
2019-01-21T11:53:02.496Z,76.49
2019-01-21T11:59:14.236Z,76.18
2019-01-21T12:05:25.140Z,75.26
2019-01-21T12:11:39.912Z,74.96
2019-01-21T12:18:03.741Z,75.32
2019-01-21T12:24:13.361Z,74.53
2019-01-21T12:30:35.367Z,73.55
2019-01-21T12:36:44.634Z,71.40
2019-01-21T12:42:53.919Z,71.30
2019-01-21T12:49:09.346Z,71.99
2019-01-21T12:55:33.279Z,72.25
2019-01-21T13:01:45.281Z,69.86
2019-01-21T13:08:06.172Z,72.21
2019-01-21T13:14:36.298Z,71.20
2019-01-21T13:21:06.405Z,71.95
2019-01-21T13:27:15.678Z,72.31
2019-01-21T13:33:40.579Z,72.75
2019-01-21T13:40:21.335Z,73.49
2019-01-21T13:46:42.313Z,73.08
2019-01-21T13:53:08.165Z,72.92
2019-01-21T13:59:36.808Z,73.35
2019-01-21T14:06:39.390Z,73.20
2019-01-21T14:13:26.491Z,74.09
2019-01-21T14:20:16.612Z,73.95
2019-01-21T14:33:22.827Z,74.19
2019-01-21T14:40:07.787Z,73.84
2019-01-21T14:47:10.556Z,72.88
2019-01-21T14:54:13.533Z,72.94
2019-01-21T15:01:16.690Z,74.43
2019-01-21T15:08:01.692Z,75.37
2019-01-21T15:14:20.525Z,75.79
2019-01-21T15:21:23.942Z,76.38
2019-01-21T15:28:26.730Z,77.96
2019-01-21T15:35:29.358Z,77.47
2019-01-21T15:42:32.205Z,78.16
2019-01-21T15:49:17.223Z,78.98
2019-01-21T15:56:02.132Z,80.15
2019-01-21T16:03:04.719Z,80.17
2019-01-21T16:09:49.557Z,80.71
2019-01-21T16:16:28.318Z,80.66
2019-01-21T16:23:30.994Z,81.70
2019-01-21T16:43:35.575Z,81.57
2019-01-21T16:49:59.529Z,82.32
2019-01-21T16:56:23.534Z,82.72
2019-01-21T17:09:17.002Z,82.35
2019-01-21T17:15:33.589Z,82.66
2019-01-21T17:28:28.091Z,82.09
2019-01-21T17:41:15.274Z,82.18
2019-01-21T17:54:08.621Z,82.84
2019-01-21T18:00:32.682Z,82.37
2019-01-21T18:06:56.674Z,83.13
2019-01-21T18:13:20.650Z,82.51
2019-01-21T18:26:34.736Z,82.76
2019-01-21T18:32:58.816Z,82.64
2019-01-21T18:39:16.451Z,82.83
2019-01-21T18:45:40.583Z,81.79
2019-01-21T18:58:54.318Z,82.99
2019-01-21T19:12:01.350Z,82.52
2019-01-21T19:18:44.443Z,84.38
2019-01-21T19:25:29.426Z,83.89
2019-01-21T19:31:53.402Z,85.04
2019-01-21T19:38:36.437Z,84.78
2019-01-21T19:45:00.413Z,84.59
2019-01-21T19:51:24.569Z,85.47
2019-01-21T19:58:07.714Z,85.31
2019-01-21T20:04:31.812Z,84.38
2019-01-21T20:11:14.887Z,84.85
2019-01-21T20:17:32.204Z,84.58
2019-01-21T20:37:28.130Z,84.15
2019-01-21T20:43:52.191Z,83.57
2019-01-21T20:50:37.091Z,83.83
2019-01-21T20:57:20.258Z,83.73
2019-01-21T21:10:34.429Z,85.33
2019-01-21T21:16:58.470Z,86.25
2019-01-21T21:29:51.711Z,85.37
2019-01-21T21:43:04.585Z,84.85
2019-01-21T21:49:47.760Z,85.22
2019-01-21T22:02:34.365Z,85.17
2019-01-21T22:09:17.971Z,84.96
2019-01-21T22:22:34.874Z,85.12
2019-01-21T22:29:16.753Z,85.67
2019-01-21T22:55:29.996Z,87.90
2019-01-21T23:01:45.307Z,87.44
2019-01-21T23:14:38.493Z,87.00
2019-01-21T23:21:02.509Z,87.17
2019-01-21T23:27:26.478Z,87.08
2019-01-21T23:33:52.194Z,86.71
2019-01-21T23:47:24.857Z,85.64
2019-01-21T23:53:41.565Z,85.63
